aviador You're here:

LIBP Decoded Metar

PESCARA in ITALY
Report Time2018-07-22 03:50:00
UTC Time2018-07-22 04:53:54
Flight Rules vfr VFR
Wind210° at 04 kt
W.Decomp.*RWY 22: 3.9 kt HW 0.8 kt LCW
W.Rank210° ranks 3
Current wind is below 210° avg. (6.1)
Visibility9999 m
Phenomena:N/A
Clouds:N/A
Expected CloudBase > 800 ft AGL from Temp-Dew spread
CeilingNone
Temp19°C (ISA +4)
Dew Point17°C (88% RH)
QNH1009 hPa
Density Alt906 ft
Elevation36 ft
Report Wrong Elevation
Raw Report
METAR LIBP 220350Z AUTO 21004KT 9999 NSC 19/17 Q1009=

Extra information for LIBP:More info

Metar Taf Metar & Taf Last 4 Metars F.Rules Stats Wind Profile Meteogram Temp Stats Airport Information Weather charts Add Link Nearby VenuesMetar ALERT Operation Metar Decoded Social comments